Time;durP1;ratioP1;P1;durP2;ratioP2;P2;SDS_P1;SDS_P2;PMS_P1;PMS_P2;Temp;Humidity;BMP_temperature;BMP_pressure;BME280_temperature;BME280_humidity;BME280_pressure;Samples;Min_cycle;Max_cycle;Signal;HPM_P1;HPM_P2
2023/12/16 00:02:22;;;;;;;9.98;5.75;;;;;;;;;;5089970;28;20026;-64
2023/12/16 00:04:48;;;;;;;8.82;5.30;;;;;;;;;;5090397;28;20024;-63
2023/12/16 00:07:14;;;;;;;9.10;5.40;;;;;;;;;;5090171;28;20063;-63
2023/12/16 00:09:40;;;;;;;12.70;5.68;;;;;;;;;;5090291;28;20497;-61
2023/12/16 00:12:06;;;;;;;9.05;5.35;;;;;;;;;;5089988;28;20028;-61
2023/12/16 00:14:36;;;;;;;10.75;5.80;;;;;;;;;;5090041;28;20028;-58
2023/12/16 00:17:02;;;;;;;9.38;6.00;;;;;;;;;;5089779;28;20024;-64
2023/12/16 00:19:28;;;;;;;9.05;5.45;;;;;;;;;;5089811;28;20032;-63
2023/12/16 00:21:54;;;;;;;8.68;5.13;;;;;;;;;;5089231;28;20044;-63
2023/12/16 00:24:20;;;;;;;9.00;5.32;;;;;;;;;;5088874;28;20028;-62
2023/12/16 00:26:46;;;;;;;9.40;5.60;;;;;;;;;;5100015;28;20107;-61
2023/12/16 00:29:13;;;;;;;11.45;6.28;;;;;;;;;;5109984;28;20386;-61
2023/12/16 00:31:39;;;;;;;12.82;7.50;;;;;;;;;;5106107;28;20054;-62
2023/12/16 00:34:05;;;;;;;9.20;5.50;;;;;;;;;;5091250;28;20020;-63
2023/12/16 00:36:31;;;;;;;10.00;5.70;;;;;;;;;;5074877;28;20346;-63
2023/12/16 00:41:33;;;;;;;22.15;7.05;;;;;;;;;;5734608;23;20068;-46
2023/12/16 00:43:59;;;;;;;9.27;5.43;;;;;;;;;;5036481;28;20073;-50
2023/12/16 00:46:25;;;;;;;9.63;5.93;;;;;;;;;;5051510;28;20486;-47
2023/12/16 00:48:51;;;;;;;9.05;5.32;;;;;;;;;;5051857;28;20116;-50
2023/12/16 00:51:17;;;;;;;9.70;5.70;;;;;;;;;;5045856;28;20104;-49
2023/12/16 00:53:43;;;;;;;9.90;6.75;;;;;;;;;;5034861;23;20436;-62
2023/12/16 00:56:09;;;;;;;10.15;5.88;;;;;;;;;;5045976;28;20079;-62
2023/12/16 00:58:35;;;;;;;9.32;5.53;;;;;;;;;;5052378;28;20072;-64
2023/12/16 01:01:01;;;;;;;9.95;5.82;;;;;;;;;;5052050;28;20064;-63
2023/12/16 01:03:27;;;;;;;9.32;5.50;;;;;;;;;;5030530;28;20052;-64
2023/12/16 01:05:53;;;;;;;9.55;5.57;;;;;;;;;;5010940;28;20041;-62
2023/12/16 01:08:19;;;;;;;9.55;5.60;;;;;;;;;;5029031;28;20073;-63
2023/12/16 01:10:45;;;;;;;10.23;6.38;;;;;;;;;;5021746;28;20561;-64
2023/12/16 01:13:11;;;;;;;9.68;5.75;;;;;;;;;;5010379;28;20074;-62
2023/12/16 01:15:37;;;;;;;9.15;5.40;;;;;;;;;;5031128;28;20025;-63
2023/12/16 01:18:03;;;;;;;9.13;5.40;;;;;;;;;;5031256;28;20057;-64
2023/12/16 01:20:29;;;;;;;9.93;5.90;;;;;;;;;;5031668;28;20123;-62
2023/12/16 01:22:55;;;;;;;9.15;5.40;;;;;;;;;;5033779;28;20069;-63
2023/12/16 01:25:21;;;;;;;9.23;5.45;;;;;;;;;;5029474;28;20025;-64
2023/12/16 01:27:48;;;;;;;8.80;5.20;;;;;;;;;;5025815;28;20022;-65
2023/12/16 01:30:14;;;;;;;9.93;5.80;;;;;;;;;;5011274;28;20021;-63
2023/12/16 01:32:40;;;;;;;9.15;5.40;;;;;;;;;;5009597;28;20072;-64
2023/12/16 01:35:06;;;;;;;9.50;5.60;;;;;;;;;;5026029;28;20119;-63
2023/12/16 01:37:32;;;;;;;9.25;5.45;;;;;;;;;;5036530;28;20096;-64
2023/12/16 01:40:00;;;;;;;9.00;5.32;;;;;;;;;;5011377;28;20049;-63
2023/12/16 01:42:26;;;;;;;8.90;5.30;;;;;;;;;;5028916;28;20018;-63
2023/12/16 01:44:52;;;;;;;8.50;5.10;;;;;;;;;;5030414;28;20526;-63
2023/12/16 01:47:18;;;;;;;8.90;5.28;;;;;;;;;;5030490;28;20037;-63
2023/12/16 01:49:45;;;;;;;8.95;5.30;;;;;;;;;;5030622;28;20115;-63
2023/12/16 01:52:11;;;;;;;9.60;5.88;;;;;;;;;;5030148;28;20029;-63
2023/12/16 01:54:39;;;;;;;9.77;5.70;;;;;;;;;;5030224;28;20696;-63
2023/12/16 01:57:05;;;;;;;9.63;5.70;;;;;;;;;;5030390;28;20025;-64
2023/12/16 01:59:31;;;;;;;9.80;5.70;;;;;;;;;;5028378;28;20681;-63
2023/12/16 02:01:58;;;;;;;9.50;5.60;;;;;;;;;;5029773;28;20025;-63
2023/12/16 02:04:24;;;;;;;10.00;5.82;;;;;;;;;;5029726;28;20032;-63
2023/12/16 02:06:50;;;;;;;9.30;5.50;;;;;;;;;;5038338;28;20104;-63
2023/12/16 02:09:18;;;;;;;12.85;6.50;;;;;;;;;;5013624;28;20033;-63
2023/12/16 02:11:44;;;;;;;9.45;5.57;;;;;;;;;;5022718;28;20100;-63
2023/12/16 02:14:10;;;;;;;10.40;6.53;;;;;;;;;;5015007;28;20036;-63
2023/12/16 02:16:36;;;;;;;9.77;5.80;;;;;;;;;;5031463;28;20037;-64
2023/12/16 02:19:04;;;;;;;9.68;5.70;;;;;;;;;;5037055;28;20029;-63
2023/12/16 02:21:30;;;;;;;9.70;5.80;;;;;;;;;;5013498;28;20022;-65
2023/12/16 02:23:55;;;;;;;10.90;6.55;;;;;;;;;;5024144;28;20030;-64
2023/12/16 02:26:21;;;;;;;10.93;6.35;;;;;;;;;;5010270;28;20033;-63
2023/12/16 02:28:47;;;;;;;10.90;6.90;;;;;;;;;;5030458;28;20021;-63
2023/12/16 02:31:13;;;;;;;9.70;5.70;;;;;;;;;;5030254;28;20055;-63
2023/12/16 02:33:39;;;;;;;9.90;5.78;;;;;;;;;;5029917;28;20029;-66
2023/12/16 02:36:06;;;;;;;9.82;5.80;;;;;;;;;;5029096;28;20801;-64
2023/12/16 02:38:32;;;;;;;10.07;5.90;;;;;;;;;;5030032;28;20113;-63
2023/12/16 02:40:59;;;;;;;9.80;5.80;;;;;;;;;;5031059;28;20629;-63
2023/12/16 02:43:25;;;;;;;9.93;5.82;;;;;;;;;;5030833;28;20021;-65
2023/12/16 02:45:51;;;;;;;9.90;6.10;;;;;;;;;;5031111;28;20021;-64
2023/12/16 02:48:17;;;;;;;10.27;6.10;;;;;;;;;;5021656;28;20036;-64
2023/12/16 02:50:43;;;;;;;9.98;5.80;;;;;;;;;;5023308;28;20022;-64
2023/12/16 02:53:08;;;;;;;11.05;6.30;;;;;;;;;;5031017;28;20510;-64
2023/12/16 02:55:35;;;;;;;9.88;5.82;;;;;;;;;;5012760;28;20165;-65
2023/12/16 02:58:01;;;;;;;9.90;5.80;;;;;;;;;;5031087;28;20030;-64
2023/12/16 03:00:27;;;;;;;9.60;5.65;;;;;;;;;;5030669;28;20116;-63
2023/12/16 03:02:53;;;;;;;9.50;5.63;;;;;;;;;;5030935;28;20024;-65
2023/12/16 03:05:19;;;;;;;10.10;5.90;;;;;;;;;;5009447;28;20145;-64
2023/12/16 03:07:44;;;;;;;10.10;5.93;;;;;;;;;;5009072;28;20076;-64
2023/12/16 03:10:10;;;;;;;9.93;5.85;;;;;;;;;;5009077;28;20037;-64
2023/12/16 03:12:37;;;;;;;11.57;6.38;;;;;;;;;;5033387;28;20116;-63
2023/12/16 03:15:03;;;;;;;10.40;6.03;;;;;;;;;;5012571;28;20025;-64
2023/12/16 03:17:29;;;;;;;10.15;5.95;;;;;;;;;;5013288;28;20049;-63
2023/12/16 03:19:55;;;;;;;10.00;5.90;;;;;;;;;;5034117;28;20028;-64
2023/12/16 03:22:21;;;;;;;10.27;6.00;;;;;;;;;;5033655;28;20025;-64
2023/12/16 03:24:47;;;;;;;10.00;5.88;;;;;;;;;;5033916;28;20017;-63
2023/12/16 03:27:13;;;;;;;10.02;5.93;;;;;;;;;;5041181;28;20025;-64
2023/12/16 03:29:39;;;;;;;10.90;6.40;;;;;;;;;;5014373;28;20479;-64
2023/12/16 03:32:05;;;;;;;9.95;5.85;;;;;;;;;;5012179;28;20034;-64
2023/12/16 03:34:32;;;;;;;9.90;5.80;;;;;;;;;;5011920;28;20031;-63
2023/12/16 03:36:58;;;;;;;9.68;5.72;;;;;;;;;;5027228;28;20021;-64
2023/12/16 03:39:24;;;;;;;10.55;6.25;;;;;;;;;;5033024;28;20208;-64
2023/12/16 03:41:50;;;;;;;9.65;5.72;;;;;;;;;;5036337;28;20022;-63
2023/12/16 03:44:16;;;;;;;10.38;6.18;;;;;;;;;;5012865;28;20034;-64
2023/12/16 03:46:42;;;;;;;10.07;6.15;;;;;;;;;;5024492;28;20103;-64
2023/12/16 03:49:08;;;;;;;11.23;6.50;;;;;;;;;;5032473;28;20032;-63
2023/12/16 03:51:34;;;;;;;9.50;5.60;;;;;;;;;;5014284;28;20676;-63
2023/12/16 03:54:00;;;;;;;9.68;5.70;;;;;;;;;;5032356;28;20033;-64
2023/12/16 03:56:26;;;;;;;10.93;7.97;;;;;;;;;;5013003;28;20029;-63
2023/12/16 03:58:52;;;;;;;9.90;5.88;;;;;;;;;;5032328;28;20024;-64
2023/12/16 04:01:18;;;;;;;16.92;8.60;;;;;;;;;;5011092;28;20026;-64
2023/12/16 04:03:44;;;;;;;10.30;6.00;;;;;;;;;;5032136;28;20041;-64
2023/12/16 04:06:13;;;;;;;11.18;7.18;;;;;;;;;;5011310;28;20097;-64
2023/12/16 04:08:40;;;;;;;10.05;5.90;;;;;;;;;;5018526;28;20079;-64
2023/12/16 04:11:06;;;;;;;10.00;5.88;;;;;;;;;;5012439;28;20830;-64
2023/12/16 04:13:34;;;;;;;9.88;5.80;;;;;;;;;;5012228;28;20082;-63
2023/12/16 04:16:00;;;;;;;11.00;6.60;;;;;;;;;;5026477;28;20109;-65
2023/12/16 04:18:27;;;;;;;10.18;5.95;;;;;;;;;;5032862;28;20033;-63
2023/12/16 04:20:53;;;;;;;9.80;5.72;;;;;;;;;;5033069;28;20028;-64
2023/12/16 04:23:19;;;;;;;9.70;5.70;;;;;;;;;;5031829;28;20021;-64
2023/12/16 04:25:45;;;;;;;10.02;6.25;;;;;;;;;;5011974;28;20153;-64
2023/12/16 04:28:11;;;;;;;9.52;5.65;;;;;;;;;;5010970;28;20521;-64
2023/12/16 04:30:37;;;;;;;9.05;5.35;;;;;;;;;;5032344;28;20033;-64
2023/12/16 04:33:03;;;;;;;10.13;6.18;;;;;;;;;;5032522;28;20026;-64
2023/12/16 04:35:29;;;;;;;9.23;5.50;;;;;;;;;;5032390;28;20113;-64
2023/12/16 04:37:55;;;;;;;9.13;5.40;;;;;;;;;;5032326;28;20493;-64
2023/12/16 04:40:21;;;;;;;9.10;5.40;;;;;;;;;;5031855;28;20025;-63
2023/12/16 04:42:47;;;;;;;9.27;5.50;;;;;;;;;;5032219;28;20122;-64
2023/12/16 04:45:13;;;;;;;10.48;6.80;;;;;;;;;;5032326;28;20399;-64
2023/12/16 04:47:39;;;;;;;11.48;6.68;;;;;;;;;;5032626;28;20024;-64
2023/12/16 04:50:05;;;;;;;11.45;5.60;;;;;;;;;;5032175;28;20526;-64
2023/12/16 04:52:31;;;;;;;9.27;5.50;;;;;;;;;;5032225;28;20108;-64
2023/12/16 04:54:57;;;;;;;9.68;5.85;;;;;;;;;;5031722;28;20447;-65
2023/12/16 04:57:23;;;;;;;10.25;6.25;;;;;;;;;;5032142;28;20029;-63
2023/12/16 04:59:49;;;;;;;9.75;5.75;;;;;;;;;;5011200;28;20029;-64
2023/12/16 05:02:15;;;;;;;9.80;5.80;;;;;;;;;;5028270;28;20467;-65
2023/12/16 05:04:41;;;;;;;9.90;5.80;;;;;;;;;;5036719;28;20045;-64
2023/12/16 05:07:07;;;;;;;10.38;6.07;;;;;;;;;;5012372;28;20064;-64
2023/12/16 05:09:33;;;;;;;10.00;5.90;;;;;;;;;;5012065;28;20022;-65
2023/12/16 05:12:00;;;;;;;9.77;5.78;;;;;;;;;;5026096;28;20029;-64
2023/12/16 05:14:26;;;;;;;11.10;6.60;;;;;;;;;;5031808;28;20083;-64
2023/12/16 05:16:51;;;;;;;10.57;6.22;;;;;;;;;;5031951;28;20455;-64
2023/12/16 05:19:17;;;;;;;9.88;5.80;;;;;;;;;;5032364;28;20038;-64
2023/12/16 05:21:43;;;;;;;9.80;5.70;;;;;;;;;;5031651;28;20033;-64
2023/12/16 05:24:09;;;;;;;9.77;5.72;;;;;;;;;;5031758;28;20502;-64
2023/12/16 05:26:35;;;;;;;10.70;6.32;;;;;;;;;;5032253;28;20022;-64
2023/12/16 05:29:01;;;;;;;10.20;6.10;;;;;;;;;;5032362;28;20030;-65
2023/12/16 05:31:27;;;;;;;10.65;6.30;;;;;;;;;;5031991;28;20063;-64
2023/12/16 05:33:53;;;;;;;10.00;5.90;;;;;;;;;;5031325;28;20025;-65
2023/12/16 05:36:19;;;;;;;10.60;6.22;;;;;;;;;;5031913;28;20029;-64
2023/12/16 05:38:45;;;;;;;10.70;6.43;;;;;;;;;;5010706;28;20060;-65
2023/12/16 05:41:14;;;;;;;10.57;6.10;;;;;;;;;;5027423;28;20112;-65
2023/12/16 05:43:41;;;;;;;10.20;6.00;;;;;;;;;;5031981;28;20021;-64
2023/12/16 05:46:07;;;;;;;12.05;7.72;;;;;;;;;;5031747;28;20149;-64
2023/12/16 05:48:35;;;;;;;10.63;6.55;;;;;;;;;;5031577;28;20513;-65
2023/12/16 05:51:01;;;;;;;12.40;6.28;;;;;;;;;;5031794;28;20156;-64
2023/12/16 05:53:27;;;;;;;10.10;5.90;;;;;;;;;;5031406;28;20139;-65
2023/12/16 05:55:53;;;;;;;10.30;5.97;;;;;;;;;;5031527;28;20367;-65
2023/12/16 05:58:19;;;;;;;10.73;6.20;;;;;;;;;;5031178;28;20028;-64
2023/12/16 06:00:46;;;;;;;10.63;6.53;;;;;;;;;;5031310;28;20044;-64
2023/12/16 06:03:11;;;;;;;10.65;6.55;;;;;;;;;;5031732;28;20029;-64
2023/12/16 06:05:37;;;;;;;10.65;6.20;;;;;;;;;;5031403;28;20037;-65
2023/12/16 06:08:04;;;;;;;10.70;6.40;;;;;;;;;;5031824;28;20475;-63
2023/12/16 06:10:30;;;;;;;10.60;6.40;;;;;;;;;;5031184;28;20036;-64
2023/12/16 06:12:56;;;;;;;10.82;6.45;;;;;;;;;;5030013;28;20029;-64
2023/12/16 06:15:22;;;;;;;16.90;7.55;;;;;;;;;;5029979;28;20083;-64
2023/12/16 06:17:48;;;;;;;12.55;7.05;;;;;;;;;;5032257;28;20108;-64
2023/12/16 06:20:14;;;;;;;10.68;5.97;;;;;;;;;;5031257;28;20373;-64
2023/12/16 06:22:40;;;;;;;10.40;6.15;;;;;;;;;;5031413;28;20026;-64
2023/12/16 06:25:06;;;;;;;27.05;6.70;;;;;;;;;;5031182;28;20025;-65
2023/12/16 06:27:32;;;;;;;10.00;5.90;;;;;;;;;;5013843;28;20029;-65
2023/12/16 06:29:58;;;;;;;10.02;6.05;;;;;;;;;;5031261;28;20026;-65
2023/12/16 06:32:24;;;;;;;26.77;6.38;;;;;;;;;;5011263;28;20117;-65
2023/12/16 06:34:50;;;;;;;11.13;7.30;;;;;;;;;;5035316;28;20114;-64
2023/12/16 06:37:16;;;;;;;10.90;7.32;;;;;;;;;;5011221;28;20510;-64
2023/12/16 06:39:42;;;;;;;11.27;6.47;;;;;;;;;;5036439;28;20076;-64
2023/12/16 06:42:08;;;;;;;9.82;5.80;;;;;;;;;;5018420;28;20124;-63
2023/12/16 06:44:34;;;;;;;10.35;6.03;;;;;;;;;;5031371;28;20086;-65
2023/12/16 06:47:00;;;;;;;10.80;6.20;;;;;;;;;;5035732;28;20487;-64
2023/12/16 06:49:26;;;;;;;10.88;6.53;;;;;;;;;;5035349;28;20021;-64
2023/12/16 06:51:52;;;;;;;11.43;6.72;;;;;;;;;;5035568;28;20037;-64
2023/12/16 06:54:18;;;;;;;10.10;5.95;;;;;;;;;;5035570;28;20394;-65
2023/12/16 06:56:44;;;;;;;9.73;5.78;;;;;;;;;;5039452;28;20022;-64
2023/12/16 06:59:11;;;;;;;10.43;5.95;;;;;;;;;;5030722;28;20025;-64
2023/12/16 07:01:37;;;;;;;9.95;5.90;;;;;;;;;;5035568;28;20030;-65
2023/12/16 07:04:03;;;;;;;10.88;6.15;;;;;;;;;;5013988;28;20057;-65
2023/12/16 07:06:29;;;;;;;9.30;5.50;;;;;;;;;;5033939;28;20049;-64
2023/12/16 07:08:55;;;;;;;9.60;5.70;;;;;;;;;;5035156;28;20508;-65
2023/12/16 07:11:21;;;;;;;10.30;6.10;;;;;;;;;;5014431;28;20026;-63
2023/12/16 07:13:47;;;;;;;10.25;6.13;;;;;;;;;;5034460;28;20525;-62
2023/12/16 07:16:16;;;;;;;10.73;6.20;;;;;;;;;;5033700;28;20033;-62
2023/12/16 07:18:42;;;;;;;10.85;6.13;;;;;;;;;;5033778;28;20053;-63
2023/12/16 07:21:08;;;;;;;11.20;8.38;;;;;;;;;;5033508;28;20026;-62
2023/12/16 07:23:34;;;;;;;10.48;6.20;;;;;;;;;;5033862;28;20025;-60
2023/12/16 07:26:00;;;;;;;11.05;6.22;;;;;;;;;;5034014;28;20090;-63
2023/12/16 07:28:27;;;;;;;10.27;6.05;;;;;;;;;;5034393;28;20517;-63
2023/12/16 07:30:53;;;;;;;9.80;5.80;;;;;;;;;;5033493;28;20096;-64
2023/12/16 07:33:19;;;;;;;10.90;6.43;;;;;;;;;;5033735;28;20025;-64
2023/12/16 07:35:44;;;;;;;10.10;6.00;;;;;;;;;;5015097;28;20030;-60
2023/12/16 07:38:10;;;;;;;10.88;6.10;;;;;;;;;;5029872;28;20022;-64
2023/12/16 07:40:37;;;;;;;10.00;5.90;;;;;;;;;;5034450;28;20021;-64
2023/12/16 07:43:03;;;;;;;9.75;5.75;;;;;;;;;;5034474;28;20077;-64
2023/12/16 07:45:29;;;;;;;10.88;6.10;;;;;;;;;;5033971;28;20036;-63
2023/12/16 07:47:55;;;;;;;13.90;8.35;;;;;;;;;;5034295;28;20025;-63
2023/12/16 07:50:21;;;;;;;10.50;6.10;;;;;;;;;;5034309;28;20663;-65
2023/12/16 07:52:47;;;;;;;15.93;7.47;;;;;;;;;;5034404;28;20033;-65
2023/12/16 07:55:14;;;;;;;9.90;5.82;;;;;;;;;;5033628;28;20029;-63
2023/12/16 07:57:40;;;;;;;16.52;6.35;;;;;;;;;;5015154;28;20506;-65
2023/12/16 08:00:08;;;;;;;9.95;5.88;;;;;;;;;;5035891;28;20034;-64
2023/12/16 08:02:35;;;;;;;;;;;;;;;;;;5033107;28;20455;-62
2023/12/16 08:05:02;;;;;;;10.13;5.85;;;;;;;;;;5013018;28;20005;-63
2023/12/16 08:07:28;;;;;;;11.63;6.57;;;;;;;;;;5032506;28;20029;-63
2023/12/16 08:09:54;;;;;;;11.57;6.43;;;;;;;;;;5012861;28;20025;-63
2023/12/16 08:12:20;;;;;;;9.88;5.80;;;;;;;;;;5031500;28;20029;-63
2023/12/16 08:14:46;;;;;;;10.00;5.90;;;;;;;;;;5029530;28;20025;-62
2023/12/16 08:17:12;;;;;;;9.93;5.85;;;;;;;;;;5013456;28;20014;-63
2023/12/16 08:19:38;;;;;;;10.60;6.40;;;;;;;;;;5039421;28;20112;-63
2023/12/16 08:22:04;;;;;;;10.32;6.03;;;;;;;;;;5033372;28;20448;-63
2023/12/16 08:24:32;;;;;;;10.52;6.13;;;;;;;;;;5016584;28;20053;-62
2023/12/16 08:26:58;;;;;;;10.53;6.27;;;;;;;;;;5030371;28;20048;-64
2023/12/16 08:29:24;;;;;;;10.77;6.30;;;;;;;;;;5033772;28;20025;-63
2023/12/16 08:31:50;;;;;;;9.73;5.70;;;;;;;;;;5039145;28;20108;-63
2023/12/16 08:34:16;;;;;;;9.70;5.70;;;;;;;;;;5041985;28;20065;-63
2023/12/16 08:36:43;;;;;;;9.90;5.82;;;;;;;;;;5018668;28;20184;-62
2023/12/16 08:39:09;;;;;;;10.68;6.18;;;;;;;;;;5026759;28;20018;-62
2023/12/16 08:41:35;;;;;;;10.65;6.00;;;;;;;;;;5030293;28;20054;-63
2023/12/16 08:44:03;;;;;;;10.55;6.20;;;;;;;;;;5030507;28;20128;-61
2023/12/16 08:46:29;;;;;;;12.02;6.22;;;;;;;;;;5030069;28;20021;-56
2023/12/16 08:48:55;;;;;;;11.02;6.45;;;;;;;;;;5030225;28;20037;-54
2023/12/16 08:51:22;;;;;;;10.70;6.30;;;;;;;;;;5030149;28;20113;-58
2023/12/16 08:53:48;;;;;;;10.75;6.50;;;;;;;;;;5023964;28;20029;-56
2023/12/16 08:56:17;;;;;;;11.80;7.18;;;;;;;;;;5026015;28;20548;-55
2023/12/16 08:58:43;;;;;;;11.52;7.60;;;;;;;;;;5030271;28;20021;-53
2023/12/16 09:01:09;;;;;;;13.02;7.80;;;;;;;;;;5029954;28;20047;-52
2023/12/16 09:03:36;;;;;;;14.98;7.00;;;;;;;;;;5030119;28;20129;-56
2023/12/16 09:06:02;;;;;;;14.25;6.78;;;;;;;;;;5029879;28;20076;-57
2023/12/16 09:08:28;;;;;;;10.77;6.35;;;;;;;;;;5036272;28;20051;-56
2023/12/16 09:10:54;;;;;;;11.00;6.32;;;;;;;;;;5023192;28;20081;-57
2023/12/16 09:13:20;;;;;;;11.30;7.03;;;;;;;;;;5029648;28;20073;-61
2023/12/16 09:15:46;;;;;;;10.60;6.22;;;;;;;;;;5008491;28;20045;-62
2023/12/16 09:18:12;;;;;;;11.32;6.68;;;;;;;;;;5026281;28;20112;-56
2023/12/16 09:20:38;;;;;;;10.90;6.38;;;;;;;;;;5011286;28;20030;-57
2023/12/16 09:23:04;;;;;;;11.73;7.57;;;;;;;;;;5029734;28;20021;-58
2023/12/16 09:25:30;;;;;;;11.25;6.90;;;;;;;;;;5029689;28;20188;-56
2023/12/16 09:27:56;;;;;;;11.10;6.35;;;;;;;;;;5029715;28;20032;-52
2023/12/16 09:30:22;;;;;;;11.30;6.55;;;;;;;;;;5032815;28;20387;-57
2023/12/16 09:32:48;;;;;;;10.70;6.30;;;;;;;;;;5016764;28;20116;-56
2023/12/16 09:35:14;;;;;;;10.35;6.25;;;;;;;;;;5041313;28;20052;-55
2023/12/16 09:37:40;;;;;;;12.77;7.85;;;;;;;;;;5049195;28;20021;-55
2023/12/16 09:40:07;;;;;;;11.00;6.70;;;;;;;;;;5048921;28;20489;-54
2023/12/16 09:42:36;;;;;;;11.15;6.45;;;;;;;;;;5048930;28;20025;-56
2023/12/16 09:45:03;;;;;;;11.27;6.80;;;;;;;;;;5048934;28;20188;-57
2023/12/16 09:47:29;;;;;;;14.07;7.80;;;;;;;;;;5049053;28;20055;-55
2023/12/16 09:50:00;;;;;;;10.93;6.50;;;;;;;;;;5048957;28;20060;-54
2023/12/16 09:52:27;;;;;;;11.77;6.97;;;;;;;;;;5048980;28;20056;-57
2023/12/16 09:54:54;;;;;;;12.05;7.57;;;;;;;;;;5034524;28;20037;-55
2023/12/16 09:57:22;;;;;;;11.35;6.40;;;;;;;;;;5029319;28;20482;-56
2023/12/16 09:59:49;;;;;;;10.60;6.30;;;;;;;;;;5011656;28;20183;-57
2023/12/16 10:02:27;;;;;;;11.48;6.68;;;;;;;;;;5029109;28;20029;-57
2023/12/16 10:04:54;;;;;;;11.60;6.73;;;;;;;;;;5029342;28;20032;-53
2023/12/16 10:07:20;;;;;;;11.32;6.47;;;;;;;;;;5028832;28;20025;-56
2023/12/16 10:09:47;;;;;;;11.90;6.63;;;;;;;;;;5011509;28;20043;-56
2023/12/16 10:12:13;;;;;;;11.25;6.70;;;;;;;;;;5028872;28;20021;-57
2023/12/16 10:14:48;;;;;;;24.55;10.05;;;;;;;;;;5011109;28;20028;-55
2023/12/16 10:17:17;;;;;;;26.98;7.20;;;;;;;;;;5011216;28;20036;-58
2023/12/16 10:19:44;;;;;;;11.88;7.15;;;;;;;;;;5027820;28;20021;-56
2023/12/16 10:22:11;;;;;;;13.85;7.07;;;;;;;;;;5028542;28;20041;-59
2023/12/16 10:24:37;;;;;;;10.93;6.40;;;;;;;;;;5011155;28;20430;-58
2023/12/16 10:27:05;;;;;;;11.02;6.45;;;;;;;;;;5028320;28;20471;-56
2023/12/16 10:29:33;;;;;;;14.25;7.90;;;;;;;;;;5028692;28;20040;-57
2023/12/16 10:31:59;;;;;;;11.07;6.53;;;;;;;;;;5028852;28;20026;-59
2023/12/16 10:34:28;;;;;;;10.50;6.18;;;;;;;;;;5028788;28;20029;-59
2023/12/16 10:37:02;;;;;;;11.98;6.85;;;;;;;;;;5011003;28;20033;-58
2023/12/16 10:39:28;;;;;;;14.70;8.20;;;;;;;;;;5039055;28;20021;-57
2023/12/16 10:41:54;;;;;;;11.80;6.90;;;;;;;;;;5040837;28;20493;-58
2023/12/16 10:44:20;;;;;;;10.75;6.40;;;;;;;;;;5031297;28;20022;-56
2023/12/16 10:46:50;;;;;;;13.30;7.53;;;;;;;;;;5028910;28;20038;-56
2023/12/16 10:49:16;;;;;;;11.68;6.95;;;;;;;;;;5029009;28;20026;-59
2023/12/16 10:51:44;;;;;;;13.00;6.70;;;;;;;;;;5028271;28;20402;-56
2023/12/16 10:54:20;;;;;;;11.02;6.50;;;;;;;;;;5028495;28;20088;-58
2023/12/16 10:56:51;;;;;;;15.38;7.38;;;;;;;;;;5028411;28;20034;-57
2023/12/16 10:59:23;;;;;;;11.38;6.72;;;;;;;;;;5028697;28;20139;-58
2023/12/16 11:01:56;;;;;;;10.30;6.05;;;;;;;;;;5028105;28;20044;-58
2023/12/16 11:04:27;;;;;;;11.95;6.78;;;;;;;;;;5028074;28;20100;-58
2023/12/16 11:06:56;;;;;;;11.45;6.53;;;;;;;;;;5011119;28;20109;-58
2023/12/16 11:09:23;;;;;;;12.55;7.15;;;;;;;;;;5028444;28;20451;-53
2023/12/16 11:11:49;;;;;;;12.65;6.20;;;;;;;;;;5028097;28;20126;-55
2023/12/16 11:14:16;;;;;;;19.60;7.63;;;;;;;;;;5028164;28;20376;-58
2023/12/16 11:16:42;;;;;;;14.13;7.38;;;;;;;;;;5028178;28;20030;-59
2023/12/16 11:19:09;;;;;;;10.50;6.05;;;;;;;;;;5027838;28;20529;-56
2023/12/16 11:21:37;;;;;;;11.65;6.43;;;;;;;;;;5009892;28;20367;-58
2023/12/16 11:24:03;;;;;;;10.43;6.10;;;;;;;;;;5028202;28;20026;-58
2023/12/16 11:26:31;;;;;;;9.50;5.60;;;;;;;;;;5027055;28;20380;-56
2023/12/16 11:28:57;;;;;;;10.87;7.10;;;;;;;;;;5028189;28;20052;-55
2023/12/16 11:31:23;;;;;;;10.00;6.05;;;;;;;;;;5028802;28;20041;-58
2023/12/16 11:33:49;;;;;;;12.32;6.40;;;;;;;;;;5038563;28;20113;-56
2023/12/16 11:36:15;;;;;;;12.73;7.57;;;;;;;;;;5047453;28;20021;-59
2023/12/16 11:38:43;;;;;;;21.63;7.15;;;;;;;;;;5051489;28;20368;-58
2023/12/16 11:41:10;;;;;;;11.23;6.35;;;;;;;;;;5051313;28;20072;-60
2023/12/16 11:43:49;;;;;;;10.68;6.30;;;;;;;;;;5051474;28;20052;-58
2023/12/16 11:46:34;;;;;;;10.10;6.10;;;;;;;;;;5018386;28;20022;-57
2023/12/16 11:49:04;;;;;;;10.30;6.00;;;;;;;;;;5033940;28;20471;-57
2023/12/16 11:51:34;;;;;;;11.80;6.47;;;;;;;;;;5031256;28;20037;-56
2023/12/16 11:54:00;;;;;;;9.63;5.70;;;;;;;;;;5031607;28;20220;-56
2023/12/16 11:56:27;;;;;;;13.32;6.78;;;;;;;;;;5031787;28;20084;-55
2023/12/16 11:58:57;;;;;;;11.20;6.50;;;;;;;;;;5031780;28;20025;-57
2023/12/16 12:01:27;;;;;;;11.15;6.50;;;;;;;;;;5031320;28;20036;-58
2023/12/16 12:03:54;;;;;;;11.07;6.78;;;;;;;;;;5031603;28;20344;-58
2023/12/16 12:06:20;;;;;;;9.80;5.80;;;;;;;;;;5031054;28;20379;-56
2023/12/16 12:08:46;;;;;;;10.63;6.20;;;;;;;;;;5031251;28;20053;-58
2023/12/16 12:11:16;;;;;;;12.48;7.28;;;;;;;;;;5013001;28;20030;-55
2023/12/16 12:13:46;;;;;;;10.40;6.85;;;;;;;;;;5030097;28;20029;-60
2023/12/16 12:16:14;;;;;;;12.55;6.50;;;;;;;;;;5030652;28;20120;-57
2023/12/16 12:18:41;;;;;;;11.75;6.95;;;;;;;;;;5030563;28;20479;-57
2023/12/16 12:21:07;;;;;;;17.13;6.82;;;;;;;;;;5030176;28;20029;-56
2023/12/16 12:23:33;;;;;;;14.15;7.88;;;;;;;;;;5030053;28;20108;-58
2023/12/16 12:26:00;;;;;;;11.55;6.80;;;;;;;;;;5030165;28;20028;-56
2023/12/16 12:28:26;;;;;;;15.65;7.88;;;;;;;;;;5013535;28;20026;-59
2023/12/16 12:31:00;;;;;;;11.65;6.70;;;;;;;;;;5033163;28;20026;-57
2023/12/16 12:33:27;;;;;;;14.90;7.93;;;;;;;;;;5031978;28;20049;-60
2023/12/16 12:35:52;;;;;;;18.67;7.68;;;;;;;;;;5033239;28;20025;-56
2023/12/16 12:38:19;;;;;;;9.82;5.60;;;;;;;;;;5036919;28;20032;-61
2023/12/16 12:40:56;;;;;;;12.85;6.68;;;;;;;;;;5033024;28;20025;-56
2023/12/16 12:43:29;;;;;;;13.85;6.75;;;;;;;;;;5034592;28;20111;-58
2023/12/16 12:46:06;;;;;;;16.60;7.03;;;;;;;;;;5042808;28;20137;-56
2023/12/16 12:48:32;;;;;;;11.18;5.75;;;;;;;;;;5031510;28;20025;-58
2023/12/16 12:51:03;;;;;;;12.98;6.35;;;;;;;;;;5038101;28;20077;-57
2023/12/16 12:53:29;;;;;;;12.48;6.82;;;;;;;;;;5028134;28;20095;-56
2023/12/16 12:55:56;;;;;;;10.80;5.85;;;;;;;;;;5034613;28;20112;-56
2023/12/16 12:58:22;;;;;;;13.02;6.70;;;;;;;;;;5030369;28;20535;-53
2023/12/16 13:00:56;;;;;;;15.40;7.15;;;;;;;;;;5022495;28;20092;-55
2023/12/16 13:03:23;;;;;;;16.27;6.22;;;;;;;;;;5029362;28;20025;-55
2023/12/16 13:05:50;;;;;;;13.80;7.63;;;;;;;;;;5022447;28;20075;-57
2023/12/16 13:08:16;;;;;;;15.55;6.97;;;;;;;;;;5029958;28;20364;-56
2023/12/16 13:10:42;;;;;;;21.90;9.77;;;;;;;;;;5029444;28;20018;-59
2023/12/16 13:13:08;;;;;;;10.75;6.15;;;;;;;;;;5008638;28;20038;-55
2023/12/16 13:15:34;;;;;;;16.77;8.40;;;;;;;;;;5028296;28;20037;-55
2023/12/16 13:18:00;;;;;;;15.88;8.02;;;;;;;;;;5029774;28;20101;-58
2023/12/16 13:20:27;;;;;;;12.32;7.40;;;;;;;;;;5009193;28;20024;-58
2023/12/16 13:22:53;;;;;;;11.43;7.18;;;;;;;;;;5029497;28;20029;-56
2023/12/16 13:25:19;;;;;;;18.75;6.95;;;;;;;;;;5029624;28;20085;-60
2023/12/16 13:27:45;;;;;;;8.82;5.20;;;;;;;;;;5029611;28;20037;-58
2023/12/16 13:30:12;;;;;;;22.13;6.22;;;;;;;;;;5029734;28;20098;-58
2023/12/16 13:32:40;;;;;;;22.50;9.55;;;;;;;;;;5010705;28;20053;-58
2023/12/16 13:35:06;;;;;;;11.32;6.40;;;;;;;;;;5029309;28;20471;-52
2023/12/16 13:37:32;;;;;;;13.73;6.10;;;;;;;;;;5010195;28;20030;-59
2023/12/16 13:40:05;;;;;;;10.05;6.30;;;;;;;;;;5029190;28;20029;-57
2023/12/16 13:42:32;;;;;;;13.50;6.50;;;;;;;;;;5029189;28;20037;-56
2023/12/16 13:44:58;;;;;;;18.58;7.88;;;;;;;;;;5034314;28;20052;-54
2023/12/16 13:47:24;;;;;;;16.60;8.27;;;;;;;;;;5037020;28;20048;-58
2023/12/16 13:49:50;;;;;;;9.95;5.88;;;;;;;;;;5038030;28;20017;-59
2023/12/16 13:52:16;;;;;;;11.85;6.38;;;;;;;;;;5031041;28;20025;-54
2023/12/16 13:54:42;;;;;;;20.23;7.60;;;;;;;;;;5037307;28;20052;-54
2023/12/16 13:57:08;;;;;;;9.30;5.80;;;;;;;;;;5038515;28;20394;-56
2023/12/16 13:59:35;;;;;;;10.32;6.05;;;;;;;;;;5012298;28;20030;-54
2023/12/16 14:02:01;;;;;;;16.45;8.75;;;;;;;;;;5009077;28;20026;-57
2023/12/16 14:04:27;;;;;;;11.82;6.03;;;;;;;;;;5025338;28;20038;-59
2023/12/16 14:06:53;;;;;;;12.82;7.65;;;;;;;;;;5021966;28;20067;-59
2023/12/16 14:09:19;;;;;;;16.02;7.30;;;;;;;;;;5028763;28;20117;-58
2023/12/16 14:11:45;;;;;;;14.55;8.52;;;;;;;;;;5028598;28;20021;-56
2023/12/16 14:14:11;;;;;;;12.90;5.90;;;;;;;;;;5028594;28;20443;-56
2023/12/16 14:16:38;;;;;;;12.35;6.68;;;;;;;;;;5028668;28;20116;-57
2023/12/16 14:19:04;;;;;;;12.63;6.65;;;;;;;;;;5007866;28;20029;-59
2023/12/16 14:21:30;;;;;;;12.70;6.93;;;;;;;;;;5008958;28;20391;-57
2023/12/16 14:24:02;;;;;;;8.50;5.20;;;;;;;;;;5028417;28;20017;-58
2023/12/16 14:26:30;;;;;;;11.73;6.65;;;;;;;;;;5028375;28;20031;-58
2023/12/16 14:28:56;;;;;;;10.55;5.78;;;;;;;;;;5007627;28;20101;-57
2023/12/16 14:31:23;;;;;;;15.55;7.32;;;;;;;;;;5025118;28;20061;-59
2023/12/16 14:33:49;;;;;;;16.55;8.25;;;;;;;;;;5028620;28;20018;-58